• Join FlightAware (Why Join?)
  • Login
  • US Flag 
04:58PM EST


 

Airport Tracker/Info


-or-


 

Live Flight TrackerFlight Track Log ✈ CDG4609 ✈ 13-Jul-2013 ✈ ZBYN / TYN - ZLIC / INC

Flight Track Log - Related Links

Times and Time Zones

All times are in EDT time to prevent confusion due to time zone crossing. See the CDG4609 flight status page for this flight to view local times or setup timezone preferences in your user account.

Time Position Orientation Groundspeed Altitude Reporting Facility
EDT Latitude Longitude Course Direction KTS MPH feet Rate Location/Type
11:58PM 38.1256 108.9718 279° West  Level Estimated
11:59PM 38.1573 108.6042 276° West  Level Estimated
12:00AM 38.1678 108.4791 276° West  Level Estimated
12:01AM 38.1781 108.3540 276° West  Level Estimated
12:02AM 38.1884 108.2289 276° West  Level Estimated
12:03AM 38.1984 108.1037 276° West  Level Estimated
12:04AM 38.2084 107.9785 276° West  Level Estimated
12:05AM 38.2182 107.8533 276° West  Level Estimated
12:06AM 38.2279 107.7280 276° West  Level Estimated
12:07AM 38.2375 107.6027 276° West  Level Estimated
12:08AM 38.2469 107.4773 276° West  Level Estimated
12:09AM 38.2562 107.3520 275° West  Level Estimated
12:10AM 38.2654 107.2266 275° West  Level Estimated
12:11AM 38.2744 107.1012 275° West  Level Estimated
12:12AM 38.2833 106.9757 275° West  Level Estimated
12:13AM 38.2920 106.8502 275° West  Level Estimated
12:14AM 38.3007 106.7247 275° West  Level Estimated
12:15AM 38.3092 106.5991 275° West  Level Estimated
12:16AM 38.3175 106.4735 275° West  Level Estimated
12:17AM 38.3228 106.3933 275° West  Level Estimated
12:18AM 38.3228 106.3933 130° Southeast  Level Estimated
12:19AM 38.3228 106.3933 130° Southeast  Level Estimated
12:20AM 38.3228 106.3933 130° Southeast  Level Estimated
12:21AM 38.3228 106.3933 130° Southeast  Level Estimated
12:22AM 38.3228 106.3933 130° Southeast  Level Estimated
12:23AM 38.3228 106.3933 130° Southeast  Level Estimated
12:24AM 38.3228 106.3933 130° Southeast  Level Estimated
12:25AM 38.3228 106.3933 130° Southeast  Level Estimated
12:26AM 38.3228 106.3933 130° Southeast  Level Estimated
12:27AM 38.3228 106.3933 130° Southeast  Level Estimated
12:28AM 38.3228 106.3933 130° Southeast  Level Estimated
12:29AM 38.3228 106.3933 130° Southeast  Level Estimated
12:30AM 38.3228 106.3933 130° Southeast  Level Estimated
12:31AM 38.3228 106.3933 130° Southeast  Level Estimated
12:32AM 38.3228 106.3933 130° Southeast  Level Estimated
12:33AM 38.3228 106.3933 130° Southeast  Level Estimated
12:34AM 38.3228 106.3933 130° Southeast  Level Estimated
12:35AM 38.3228 106.3933 130° Southeast  Level Estimated
12:36AM 38.3228 106.3933 130° Southeast  Level Estimated
12:37AM 38.3228 106.3933 130° Southeast  Level Estimated
12:38AM 38.3228 106.3933 130° Southeast  Level Estimated
12:39AM 38.3228 106.3933 130° Southeast  Level Estimated
12:40AM 38.3228 106.3933 130° Southeast  Level Estimated
12:41AM 38.3228 106.3933 130° Southeast  Level Estimated
12:42AM 38.3228 106.3933 130° Southeast  Level Estimated
12:43AM 38.3228 106.3933 130° Southeast  Level Estimated
12:44AM 38.3228 106.3933 130° Southeast  Level Estimated
12:45AM 38.3228 106.3933 130° Southeast  Level Estimated
12:46AM 38.3228 106.3933 130° Southeast  Level Estimated
12:47AM 38.3228 106.3933 130° Southeast  Level Estimated
12:48AM 38.3228 106.3933 130° Southeast  Level Estimated
12:49AM 38.3228 106.3933 130° Southeast  Level Estimated
12:50AM 38.3228 106.3933 130° Southeast  Level Estimated
12:51AM 38.3228 106.3933 130° Southeast  Level Estimated
12:52AM 38.3228 106.3933 130° Southeast  Level Estimated
12:53AM 38.3228 106.3933 130° Southeast  Level Estimated
12:54AM 38.3228 106.3933 130° Southeast  Level Estimated